createdAt,value
2023-03-17T00:00:47.112Z,98307.28
2023-03-17T00:03:50.379Z,98316.19
2023-03-17T00:06:54.974Z,98311.25
2023-03-17T00:09:57.500Z,98297.34
2023-03-17T00:13:00.076Z,98294.19
2023-03-17T00:16:04.395Z,98293.28
2023-03-17T00:19:07.582Z,98277.13
2023-03-17T00:22:16.637Z,98273.78
2023-03-17T00:25:23.226Z,98269.19
2023-03-17T00:28:27.170Z,98264.38
2023-03-17T00:31:30.608Z,98268.25
2023-03-17T00:34:34.311Z,98264.69
2023-03-17T00:37:39.619Z,98265.25
2023-03-17T00:40:42.288Z,98266.88
2023-03-17T00:43:45.548Z,98256.06
2023-03-17T00:46:48.297Z,98251.81
2023-03-17T00:49:51.090Z,98254.06
2023-03-17T00:52:57.550Z,98251.28
2023-03-17T00:56:00.479Z,98246.88
2023-03-17T00:59:03.818Z,98248.97
2023-03-17T01:02:07.112Z,98243.28
2023-03-17T01:05:10.584Z,98243.34
2023-03-17T01:08:14.894Z,98231.50
2023-03-17T01:11:19.509Z,98230.84
2023-03-17T01:14:22.506Z,98220.38
2023-03-17T01:17:25.084Z,98218.69
2023-03-17T01:20:29.684Z,98208.13
2023-03-17T01:23:33.928Z,98217.59
2023-03-17T01:26:36.636Z,98235.66
2023-03-17T01:29:39.484Z,98220.28
2023-03-17T01:32:42.018Z,98220.78
2023-03-17T01:35:46.027Z,98222.59
2023-03-17T01:38:50.904Z,98212.88
2023-03-17T01:41:56.911Z,98214.56
2023-03-17T01:45:01.894Z,98211.53
2023-03-17T01:48:04.640Z,98210.25
2023-03-17T01:51:08.484Z,98216.56
2023-03-17T01:54:16.447Z,98206.34
2023-03-17T01:57:21.279Z,98205.72
2023-03-17T02:00:26.565Z,98194.88
2023-03-17T02:03:29.821Z,98198.50
2023-03-17T02:06:33.064Z,98184.84
2023-03-17T02:09:37.133Z,98193.97
2023-03-17T02:12:40.480Z,98197.19
2023-03-17T02:15:44.967Z,98198.50
2023-03-17T02:18:47.694Z,98199.38
2023-03-17T02:21:53.297Z,98202.19
2023-03-17T02:24:58.156Z,98192.75
2023-03-17T02:28:03.443Z,98195.66
2023-03-17T02:31:06.244Z,98201.78
2023-03-17T02:34:08.912Z,98212.38
2023-03-17T02:37:13.093Z,98208.13
2023-03-17T02:40:16.588Z,98212.13
2023-03-17T02:43:19.310Z,98200.09
2023-03-17T02:46:21.944Z,98195.06
2023-03-17T02:49:24.700Z,98193.47
2023-03-17T02:52:28.685Z,98183.75
2023-03-17T02:55:31.698Z,98176.19
2023-03-17T02:58:34.240Z,98179.00
2023-03-17T03:01:38.806Z,98180.00
2023-03-17T03:04:41.802Z,98168.78
2023-03-17T03:07:45.565Z,98172.66
2023-03-17T03:10:47.899Z,98184.06
2023-03-17T03:13:50.361Z,98176.56
2023-03-17T03:16:53.040Z,98168.69
2023-03-17T03:19:55.555Z,98173.53
2023-03-17T03:22:59.422Z,98176.72
2023-03-17T03:26:02.219Z,98176.69
2023-03-17T03:29:05.311Z,98170.22
2023-03-17T03:32:08.359Z,98172.94
2023-03-17T03:35:11.546Z,98169.28
2023-03-17T03:38:15.739Z,98167.81
2023-03-17T03:41:18.251Z,98164.03
2023-03-17T03:44:20.916Z,98171.50
2023-03-17T03:47:23.419Z,98178.88
2023-03-17T03:50:26.118Z,98187.06
2023-03-17T03:53:30.336Z,98185.09
2023-03-17T03:56:32.932Z,98182.69
2023-03-17T03:59:35.401Z,98184.13
2023-03-17T04:02:38.006Z,98172.06
2023-03-17T04:05:40.630Z,98176.69
2023-03-17T04:08:44.539Z,98175.06
2023-03-17T04:11:46.940Z,98167.63
2023-03-17T04:14:49.497Z,98174.47
2023-03-17T04:17:54.848Z,98171.41
2023-03-17T04:20:57.379Z,98166.19
2023-03-17T04:24:01.489Z,98166.25
2023-03-17T04:27:05.996Z,98167.66
2023-03-17T04:30:13.510Z,98170.16
2023-03-17T04:33:16.329Z,98164.72
2023-03-17T04:36:20.361Z,98166.97
2023-03-17T04:39:24.166Z,98153.06
2023-03-17T04:42:26.529Z,98153.66
2023-03-17T04:45:29.404Z,98145.56
2023-03-17T04:48:32.608Z,98152.59
2023-03-17T04:51:36.729Z,98155.56
2023-03-17T04:54:40.945Z,98150.00
2023-03-17T04:57:43.516Z,98141.63
2023-03-17T05:00:46.018Z,98140.00
2023-03-17T05:03:48.871Z,98143.00
2023-03-17T05:06:51.867Z,98139.75
2023-03-17T05:09:55.688Z,98143.31
2023-03-17T05:12:58.128Z,98134.19
2023-03-17T05:16:01.461Z,98131.16
2023-03-17T05:19:04.110Z,98133.06
2023-03-17T05:22:07.175Z,98137.59
2023-03-17T05:25:11.244Z,98134.03
2023-03-17T05:28:14.052Z,98132.06
2023-03-17T05:31:16.592Z,98146.84
2023-03-17T05:34:19.134Z,98150.41
2023-03-17T05:37:21.618Z,98149.00
2023-03-17T05:40:25.508Z,98152.72
2023-03-17T05:43:27.930Z,98159.59
2023-03-17T05:46:30.651Z,98160.75
2023-03-17T05:49:33.177Z,98158.13
2023-03-17T05:52:35.822Z,98158.06
2023-03-17T05:55:40.603Z,98143.22
2023-03-17T05:58:43.346Z,98144.81
2023-03-17T06:01:46.258Z,98145.66
2023-03-17T06:04:49.040Z,98153.97
2023-03-17T06:07:56.089Z,98147.91
2023-03-17T06:11:00.744Z,98138.53
2023-03-17T06:14:03.299Z,98137.59
2023-03-17T06:17:06.307Z,98139.88
2023-03-17T06:20:11.741Z,98157.25
2023-03-17T06:23:14.420Z,98165.66
2023-03-17T06:26:18.294Z,98149.44
2023-03-17T06:29:21.860Z,98144.91
2023-03-17T06:32:24.608Z,98168.06
2023-03-17T06:35:27.598Z,98164.69
2023-03-17T06:38:30.176Z,98158.09
2023-03-17T06:41:34.178Z,98154.13
2023-03-17T06:44:37.855Z,98147.63
2023-03-17T06:47:40.354Z,98137.84
2023-03-17T06:50:42.994Z,98142.28
2023-03-17T06:53:45.714Z,98136.28
2023-03-17T06:56:49.583Z,98146.19
2023-03-17T06:59:52.351Z,98142.81
2023-03-17T07:02:54.929Z,98150.28
2023-03-17T07:05:58.036Z,98141.84
2023-03-17T07:09:02.302Z,98155.91
2023-03-17T07:12:07.109Z,98158.41
2023-03-17T07:15:12.456Z,98158.03
2023-03-17T07:18:15.007Z,98170.19
2023-03-17T07:21:17.635Z,98165.28
2023-03-17T07:24:20.219Z,98167.56
2023-03-17T07:27:25.366Z,98157.94
2023-03-17T07:30:28.631Z,98159.34
2023-03-17T07:33:33.763Z,98163.22
2023-03-17T07:36:36.372Z,98163.53
2023-03-17T07:39:39.817Z,98150.69
2023-03-17T07:42:43.735Z,98158.50
2023-03-17T07:45:46.989Z,98166.38
2023-03-17T07:48:49.983Z,98156.78
2023-03-17T07:51:52.456Z,98152.13
2023-03-17T07:54:55.853Z,98149.09
2023-03-17T07:58:00.400Z,98143.59
2023-03-17T08:01:03.430Z,98139.22
2023-03-17T08:04:07.511Z,98150.13
2023-03-17T08:07:10.425Z,98144.28
2023-03-17T08:10:13.917Z,98136.59
2023-03-17T08:13:18.747Z,98145.59
2023-03-17T08:16:21.945Z,98156.91
2023-03-17T08:19:24.670Z,98149.03
2023-03-17T08:22:27.749Z,98154.59
2023-03-17T08:25:31.607Z,98152.03
2023-03-17T08:28:36.232Z,98153.25
2023-03-17T08:31:40.540Z,98148.13
2023-03-17T08:34:44.470Z,98151.66
2023-03-17T08:37:47.569Z,98143.63
2023-03-17T08:40:50.878Z,98136.53
2023-03-17T08:43:56.042Z,98130.22
2023-03-17T08:46:58.532Z,98144.13
2023-03-17T08:50:01.243Z,98137.69
2023-03-17T08:53:04.293Z,98135.41
2023-03-17T08:56:08.344Z,98126.03
2023-03-17T08:59:12.407Z,98127.13
2023-03-17T09:02:15.894Z,98131.75
2023-03-17T09:05:19.382Z,98124.22
2023-03-17T09:08:22.589Z,98121.19
2023-03-17T09:11:27.111Z,98124.00
2023-03-17T09:14:40.095Z,98111.50
2023-03-17T09:17:45.332Z,98109.53
2023-03-17T09:20:48.002Z,98110.75
2023-03-17T09:23:50.609Z,98108.38
2023-03-17T09:26:53.125Z,98105.44
2023-03-17T09:29:57.007Z,98108.22
2023-03-17T09:33:00.531Z,98101.94
2023-03-17T09:36:03.065Z,98113.09
2023-03-17T09:39:06.107Z,98107.97
2023-03-17T09:42:20.327Z,98115.59
2023-03-17T09:45:31.400Z,98117.94
2023-03-17T09:48:51.333Z,98116.09
2023-03-17T09:51:54.265Z,98109.06
2023-03-17T09:54:57.386Z,98104.56
2023-03-17T09:58:00.776Z,98104.56
2023-03-17T10:01:05.331Z,98099.38
2023-03-17T10:04:09.369Z,98104.50
2023-03-17T10:07:13.458Z,98099.81
2023-03-17T10:10:21.926Z,98106.53
2023-03-17T10:13:30.663Z,98101.50
2023-03-17T10:16:42.568Z,98095.41
2023-03-17T10:19:47.040Z,98096.94
2023-03-17T10:22:52.888Z,98092.19
2023-03-17T10:25:56.630Z,98082.59
2023-03-17T10:28:59.805Z,98081.66
2023-03-17T10:32:04.195Z,98078.66
2023-03-17T10:35:08.026Z,98076.38
2023-03-17T10:38:16.920Z,98075.63
2023-03-17T10:41:19.401Z,98065.59
2023-03-17T10:44:24.678Z,98068.28
2023-03-17T10:47:32.121Z,98067.41
2023-03-17T10:50:37.706Z,98071.03
2023-03-17T10:53:43.337Z,98067.53
2023-03-17T10:56:48.060Z,98063.66
2023-03-17T10:59:55.597Z,98065.66
2023-03-17T11:03:00.793Z,98058.81
2023-03-17T11:06:05.303Z,98054.53
2023-03-17T11:09:11.035Z,98052.06
2023-03-17T11:12:23.876Z,98051.56
2023-03-17T11:15:30.092Z,98041.53
2023-03-17T11:18:37.261Z,98030.41
2023-03-17T11:21:48.594Z,98032.34
2023-03-17T11:24:59.370Z,98029.03
2023-03-17T11:28:16.253Z,98017.94
2023-03-17T11:31:27.996Z,98020.44
2023-03-17T11:34:45.281Z,98018.72
2023-03-17T11:38:00.847Z,98007.28
2023-03-17T11:41:21.353Z,98005.63
2023-03-17T11:44:59.593Z,98005.03
2023-03-17T11:48:16.310Z,97988.91
2023-03-17T11:51:27.585Z,97993.63
2023-03-17T11:54:40.181Z,97991.16
2023-03-17T11:57:45.906Z,97990.16
2023-03-17T12:00:52.609Z,97985.47
2023-03-17T12:04:10.767Z,97985.41
2023-03-17T12:07:20.706Z,97978.72
2023-03-17T12:10:25.658Z,97976.72
2023-03-17T12:13:32.581Z,97984.72
2023-03-17T12:16:39.663Z,97975.53
2023-03-17T12:19:45.369Z,97977.50
2023-03-17T12:22:55.908Z,97969.59
2023-03-17T12:26:03.753Z,97970.34
2023-03-17T12:29:12.590Z,97964.94
2023-03-17T12:32:20.954Z,97969.31
2023-03-17T12:35:27.886Z,97962.91
2023-03-17T12:38:37.202Z,97959.31
2023-03-17T12:42:02.836Z,97957.78
2023-03-17T12:45:25.529Z,97953.19
2023-03-17T12:48:47.293Z,97951.25
2023-03-17T12:51:58.170Z,97953.22
2023-03-17T12:55:04.053Z,97949.81
2023-03-17T12:58:16.253Z,97943.59
2023-03-17T13:01:26.865Z,97939.16
2023-03-17T13:04:32.931Z,97943.19
2023-03-17T13:07:38.870Z,97933.56
2023-03-17T13:10:44.383Z,97928.22
2023-03-17T13:13:59.138Z,97922.78
2023-03-17T13:17:05.534Z,97925.28
2023-03-17T13:20:16.034Z,97911.91
2023-03-17T13:23:21.634Z,97908.31
2023-03-17T13:26:56.275Z,97909.88
2023-03-17T13:29:59.026Z,97908.28
2023-03-17T13:33:23.130Z,97896.69
2023-03-17T13:36:34.577Z,97895.88
2023-03-17T13:40:00.876Z,97887.41
2023-03-17T13:43:12.979Z,97880.53
2023-03-17T13:46:26.510Z,97882.72
2023-03-17T13:49:32.056Z,97881.69
2023-03-17T13:52:41.114Z,97881.38
2023-03-17T13:56:24.692Z,97877.41
2023-03-17T13:59:36.831Z,97876.91
2023-03-17T14:02:40.791Z,97871.66
2023-03-17T14:05:44.293Z,97874.19
2023-03-17T14:08:49.246Z,97865.66
2023-03-17T14:11:52.042Z,97856.03
2023-03-17T14:14:58.499Z,97849.00
2023-03-17T14:18:04.353Z,97854.47
2023-03-17T14:21:11.635Z,97847.38
2023-03-17T14:24:23.041Z,97850.53
2023-03-17T14:27:26.482Z,97848.53
2023-03-17T14:30:32.534Z,97847.25
2023-03-17T14:33:38.370Z,97843.66
2023-03-17T14:36:41.483Z,97838.84
2023-03-17T14:39:45.853Z,97830.53
2023-03-17T14:42:48.355Z,97837.03
2023-03-17T14:45:53.935Z,97829.06
2023-03-17T14:48:59.207Z,97825.00
2023-03-17T14:52:02.578Z,97828.06
2023-03-17T14:55:06.757Z,97822.44
2023-03-17T14:58:11.013Z,97828.75
2023-03-17T15:01:17.319Z,97827.59
2023-03-17T15:04:21.502Z,97820.28
2023-03-17T15:07:33.196Z,97818.78
2023-03-17T15:10:42.919Z,97819.09
2023-03-17T15:13:45.523Z,97818.66
2023-03-17T15:16:52.391Z,97821.06
2023-03-17T15:19:57.646Z,97805.97
2023-03-17T15:23:01.724Z,97816.56
2023-03-17T15:26:09.848Z,97815.81
2023-03-17T15:29:12.420Z,97815.38
2023-03-17T15:32:19.299Z,97810.00
2023-03-17T15:35:21.785Z,97819.97
2023-03-17T15:38:24.712Z,97814.03
2023-03-17T15:41:27.185Z,97812.41
2023-03-17T15:44:29.916Z,97808.78
2023-03-17T15:47:35.295Z,97810.25
2023-03-17T15:50:39.251Z,97808.22
2023-03-17T15:53:41.749Z,97812.03
2023-03-17T15:56:44.475Z,97804.00
2023-03-17T15:59:47.094Z,97805.88
2023-03-17T16:02:53.882Z,97810.06
2023-03-17T16:05:56.736Z,97800.78
2023-03-17T16:08:59.258Z,97804.47
2023-03-17T16:12:02.949Z,97800.25
2023-03-17T16:15:20.191Z,97801.94
2023-03-17T16:18:32.499Z,97797.25
2023-03-17T16:21:35.004Z,97791.81
2023-03-17T16:24:37.524Z,97799.03
2023-03-17T16:27:40.048Z,97793.56
2023-03-17T16:30:43.057Z,97797.94
2023-03-17T16:33:48.388Z,97794.00
2023-03-17T16:36:51.421Z,97787.28
2023-03-17T16:39:54.075Z,97789.66
2023-03-17T16:42:57.686Z,97794.38
2023-03-17T16:46:02.561Z,97803.38
2023-03-17T16:49:06.709Z,97796.66
2023-03-17T16:52:10.488Z,97806.88
2023-03-17T16:55:13.581Z,97799.72
2023-03-17T16:58:18.131Z,97809.13
2023-03-17T17:01:23.550Z,97817.66
2023-03-17T17:04:27.588Z,97821.91
2023-03-17T17:07:30.131Z,97816.69
2023-03-17T17:10:34.135Z,97818.19
2023-03-17T17:13:38.142Z,97816.09
2023-03-17T17:16:41.113Z,97817.56
2023-03-17T17:19:45.415Z,97819.72
2023-03-17T17:22:48.517Z,97831.03
2023-03-17T17:25:51.601Z,97842.22
2023-03-17T17:28:54.265Z,97846.84
2023-03-17T17:31:56.821Z,97863.72
2023-03-17T17:35:00.816Z,97860.88
2023-03-17T17:38:03.460Z,97859.88
2023-03-17T17:41:08.847Z,97869.78
2023-03-17T17:44:11.312Z,97868.03
2023-03-17T17:47:14.065Z,97877.34
2023-03-17T17:50:21.114Z,97881.09
2023-03-17T17:53:23.886Z,97881.03
2023-03-17T17:56:26.706Z,97884.34
2023-03-17T17:59:29.414Z,97889.63
2023-03-17T18:02:31.964Z,97887.84
2023-03-17T18:05:36.837Z,97886.34
2023-03-17T18:08:39.829Z,97883.75
2023-03-17T18:11:42.591Z,97891.56
2023-03-17T18:14:45.281Z,97896.09
2023-03-17T18:17:47.903Z,97896.59
2023-03-17T18:20:52.476Z,97903.56
2023-03-17T18:23:55.765Z,97910.47
2023-03-17T18:26:58.239Z,97908.31
2023-03-17T18:30:00.822Z,97923.44
2023-03-17T18:33:07.559Z,97922.44
2023-03-17T18:36:12.115Z,97915.22
2023-03-17T18:39:15.283Z,97908.38
2023-03-17T18:42:17.988Z,97912.78
2023-03-17T18:45:20.659Z,97912.78
2023-03-17T18:48:23.158Z,97917.78
2023-03-17T18:51:27.048Z,97928.97
2023-03-17T18:54:31.559Z,97932.91
2023-03-17T18:57:34.537Z,97930.16
2023-03-17T19:00:37.060Z,97941.56
2023-03-17T19:03:39.543Z,97938.84
2023-03-17T19:06:43.448Z,97935.66
2023-03-17T19:09:46.208Z,97939.75
2023-03-17T19:12:50.505Z,97947.56
2023-03-17T19:15:53.372Z,97939.09
2023-03-17T19:18:56.755Z,97951.41
2023-03-17T19:22:00.823Z,97952.13
2023-03-17T19:25:04.279Z,97948.88
2023-03-17T19:28:07.110Z,97938.41
2023-03-17T19:31:10.235Z,97948.38
2023-03-17T19:34:15.303Z,97950.31
2023-03-17T19:37:19.286Z,97949.00
2023-03-17T19:40:22.330Z,97953.78
2023-03-17T19:43:39.451Z,97960.47
2023-03-17T19:46:42.807Z,97956.94
2023-03-17T19:49:45.873Z,97962.97
2023-03-17T19:52:52.342Z,97956.88
2023-03-17T19:55:56.611Z,97954.81
2023-03-17T19:58:59.330Z,97958.28
2023-03-17T20:02:02.129Z,97957.56
2023-03-17T20:05:05.176Z,97964.28
2023-03-17T20:08:09.479Z,97965.91
2023-03-17T20:11:13.275Z,97962.09
2023-03-17T20:14:15.924Z,97962.78
2023-03-17T20:17:18.692Z,97972.00
2023-03-17T20:20:21.253Z,97973.31
2023-03-17T20:23:25.940Z,97972.16
2023-03-17T20:26:28.736Z,97978.53
2023-03-17T20:29:31.499Z,97981.38
2023-03-17T20:32:34.392Z,97978.34
2023-03-17T20:35:37.488Z,97983.66
2023-03-17T20:38:43.634Z,97990.28
2023-03-17T20:41:46.544Z,97991.97
2023-03-17T20:44:52.783Z,97992.59
2023-03-17T20:47:56.004Z,97994.44
2023-03-17T20:50:59.352Z,97995.34
2023-03-17T20:54:03.758Z,97985.97
2023-03-17T20:57:07.269Z,97991.78
2023-03-17T21:00:12.527Z,97994.91
2023-03-17T21:03:15.025Z,98000.56
2023-03-17T21:06:18.599Z,98000.72
2023-03-17T21:09:22.283Z,97996.75
2023-03-17T21:12:26.103Z,98000.81
2023-03-17T21:15:29.490Z,97997.09
2023-03-17T21:18:31.928Z,97992.41
2023-03-17T21:21:35.013Z,97996.81
2023-03-17T21:24:39.739Z,98004.59
2023-03-17T21:27:42.663Z,98001.06
2023-03-17T21:30:45.495Z,97998.22
2023-03-17T21:33:50.327Z,97992.31
2023-03-17T21:36:52.983Z,97988.66
2023-03-17T21:39:57.582Z,97986.28
2023-03-17T21:43:00.957Z,97976.22
2023-03-17T21:46:03.502Z,97990.28
2023-03-17T21:49:06.580Z,97996.69
2023-03-17T21:52:09.741Z,98002.22
2023-03-17T21:55:13.825Z,98007.41
2023-03-17T21:58:16.513Z,98005.59
2023-03-17T22:01:21.687Z,98004.69
2023-03-17T22:04:25.919Z,98009.84
2023-03-17T22:07:29.190Z,98015.59
2023-03-17T22:10:33.545Z,98012.81
2023-03-17T22:13:36.356Z,98022.94
2023-03-17T22:16:39.879Z,98023.69
2023-03-17T22:19:43.879Z,98018.66
2023-03-17T22:22:46.431Z,98019.72
2023-03-17T22:25:50.606Z,98023.44
2023-03-17T22:28:53.114Z,98031.50
2023-03-17T22:31:55.711Z,98022.91
2023-03-17T22:34:58.325Z,98041.56
2023-03-17T22:38:01.508Z,98043.59
2023-03-17T22:41:07.849Z,98045.19
2023-03-17T22:44:11.369Z,98052.44
2023-03-17T22:47:13.944Z,98057.16
2023-03-17T22:50:16.953Z,98054.44
2023-03-17T22:53:19.484Z,98059.72
2023-03-17T22:56:23.426Z,98061.34
2023-03-17T22:59:25.942Z,98054.19
2023-03-17T23:02:28.527Z,98056.16
2023-03-17T23:05:31.045Z,98057.28
2023-03-17T23:08:35.431Z,98056.69
2023-03-17T23:11:40.306Z,98053.41
2023-03-17T23:14:43.602Z,98058.28
2023-03-17T23:17:46.267Z,98057.97
2023-03-17T23:20:49.339Z,98070.09
2023-03-17T23:23:51.920Z,98071.00
2023-03-17T23:26:55.856Z,98079.94
2023-03-17T23:29:59.194Z,98080.50
2023-03-17T23:33:01.871Z,98074.75
2023-03-17T23:36:04.613Z,98072.75
2023-03-17T23:39:07.503Z,98073.78
2023-03-17T23:42:11.616Z,98080.94
2023-03-17T23:45:15.159Z,98082.25
2023-03-17T23:48:17.770Z,98077.38
2023-03-17T23:51:20.271Z,98087.00
2023-03-17T23:54:22.889Z,98092.47
2023-03-17T23:57:26.774Z,98092.72
